Terminal Aerodrome Forecast
Issued by NWS Wilmington, NC

Home | Current Version | Previous Version | Text Only | Print | Product List | Glossary On
Versions: 1 2 3 4 5 6 7 8 9 10 11 12 13 14 15 16 17 18 19 20 21
000
FTUS42 KILM 020500
TAFLBT
TAF
KLBT 020526Z 0206/0306 VRB04KT P6SM FEW010 FEW060 SCT100
      TEMPO 0208/0212 4SM BR SCT009
     FM021400 25005KT P6SM SCT025
     FM021900 20009KT P6SM VCSH SCT050
     FM030100 19004KT P6SM FEW050 SCT250=

USA.gov is the U.S. government's official web portal to all federal, state and local government web resources and services.